Impacts METAR Board
IDs:

KBOS - Boston/Logan Intl, MA, US

Updated at: 1300 UTC 13 Dec 2018
Potential Impact None Slight Moderate High
Time 13/01Z 13/02Z 13/03Z 13/04Z 13/05Z 13/06Z 13/07Z 13/08Z 13/09Z 13/10Z 13/11Z 13/12Z 13/13Z
Temp29 27 26 25 24 23 22 21 21 21 21 21 22
Dewpt5 4 3 4 4 4 5 6 7 7 8 9 10
Altim30.25 30.28 30.32 30.34 30.36 30.37 30.39 30.41 30.43 30.45 30.46 30.48 30.51
VIS10 10 10 10 10 10 10 10 10 10 10 10 10
CIG-- -- -- -- -- -- 250 250 250 200 200 250 250
CoverFEWSCTSCTFEWSCTSCTBKNBKNBKNOVCOVCBKNBKN
FltCatVFRVFRVFRVFRVFRVFRVFRVFRVFRVFRVFRVFRVFR
WX--------------------------
WDir35035033033033034036010340340360350330
WSpd12 11 6 8 5 6 9 10 8 8 9 7 9
WGst-- -- -- -- -- -- -- -- -- -- -- -- --
Raw hourly METARs
KBOS 130054Z 35012KT 10SM FEW250 M02/M15 A3025 RMK AO2 SLP244 T10171150
KBOS 130154Z 35011KT 10SM SCT200 M03/M16 A3028 RMK AO2 SLP252 T10281156
KBOS 130254Z 33006KT 10SM FEW200 SCT250 M03/M16 A3032 RMK AO2 SLP266 T10331161 53026
KBOS 130354Z 33008KT 10SM FEW250 M04/M16 A3034 RMK AO2 SLP274 T10391156
KBOS 130454Z 33005KT 10SM SCT250 M04/M16 A3036 RMK AO2 SLP279 T10441156 400391044
KBOS 130554Z 34006KT 10SM SCT250 M05/M16 A3037 RMK AO2 SLP284 T10501156 11011 21050 51019
KBOS 130654Z 36009KT 10SM BKN250 M06/M15 A3039 RMK AO2 SLP291 T10561150
KBOS 130754Z 01010KT 10SM BKN250 M06/M14 A3041 RMK AO2 SLP298 T10611144
KBOS 130854Z 34008KT 10SM FEW150 BKN250 M06/M14 A3043 RMK AO2 SLP303 T10611139 51018
KBOS 130954Z 34008KT 10SM FEW035 BKN200 OVC250 M06/M14 A3045 RMK AO2 SLP309 T10611139
KBOS 131054Z 36009KT 10SM FEW035 BKN200 OVC250 M06/M13 A3046 RMK AO2 SLP314 T10611133
KBOS 131154Z 35007KT 10SM FEW040 SCT200 BKN250 M06/M13 A3048 RMK AO2 SLP321 T10611128 11050 21061 53019
KBOS 131254Z 33009KT 10SM FEW040 FEW200 BKN250 M06/M12 A3051 RMK AO2 SLP332 T10561122



Page loaded:  13:55 UTC  |   05:55 AM Pacific  |   06:55 AM Mountain  |   07:55 AM Central  |   08:55 AM Eastern

 

ADVISORIES

FORECASTS

FORECASTS

OBSERVATIONS

USER TOOLS

ABOUT US